Aviation Digital Data Service (ADDS)

Output produced by METARs form (1708 UTC 24 April 2017)
found at http://www.aviationweather.gov/adds/metars/
 
OJAQ 241700Z 36014KT CAVOK 23/05 Q1014 NOSIG
TAF OJAQ 241650Z 2418/2524 36012KT 7000 NSC
       
OJAM 241700Z 32005KT 6000 NSC 14/06 Q1018 NOSIG
TAF OJAM 241650Z 2418/2524 30010KT 6000 NSC 
     BECMG 2503/2505 06006KT 5000 HZ 
     BECMG 2512/2514 32012KT
       
OJAI 241700Z 28008KT 8000 NSC 15/06 Q1019 NOSIG
TAF OJAI 241650Z 2418/2524 30012KT 7000 SCT030 
     BECMG 2503/2505 06006KT 5000 HZ 
     BECMG 2512/2514 32012KT
       
OJAM 241700Z 32005KT 6000 NSC 14/06 Q1018 NOSIG
TAF OJAM 241650Z 2418/2524 30010KT 6000 NSC 
     BECMG 2503/2505 06006KT 5000 HZ 
     BECMG 2512/2514 32012KT
       
OJAQ 241700Z 36014KT CAVOK 23/05 Q1014 NOSIG
TAF OJAQ 241650Z 2418/2524 36012KT 7000 NSC
       
OJAI 241700Z 28008KT 8000 NSC 15/06 Q1019 NOSIG
TAF OJAI 241650Z 2418/2524 30012KT 7000 SCT030 
     BECMG 2503/2505 06006KT 5000 HZ 
     BECMG 2512/2514 32012KT